createdAt,value
2023-02-27T00:00:18.404Z,-0.70
2023-02-27T00:02:47.061Z,-0.60
2023-02-27T00:05:14.539Z,-0.60
2023-02-27T00:07:41.934Z,-0.60
2023-02-27T00:10:10.435Z,-0.70
2023-02-27T00:12:40.583Z,-0.70
2023-02-27T00:15:10.945Z,-0.80
2023-02-27T00:17:38.189Z,-0.80
2023-02-27T00:20:13.973Z,-0.80
2023-02-27T00:22:41.548Z,-0.80
2023-02-27T00:25:09.475Z,-0.80
2023-02-27T00:27:37.128Z,-0.90
2023-02-27T00:30:09.593Z,-0.90
2023-02-27T00:32:36.835Z,-0.90
2023-02-27T00:35:06.210Z,-0.80
2023-02-27T00:37:34.492Z,-0.80
2023-02-27T00:40:02.000Z,-0.90
2023-02-27T00:42:30.885Z,-0.90
2023-02-27T00:44:58.012Z,-0.90
2023-02-27T00:47:25.258Z,-1.00
2023-02-27T00:49:52.343Z,-1.00
2023-02-27T00:52:19.206Z,-1.00
2023-02-27T00:54:46.008Z,-1.00
2023-02-27T00:57:13.246Z,-1.10
2023-02-27T00:59:40.097Z,-1.10
2023-02-27T01:02:06.925Z,-1.30
2023-02-27T01:04:33.852Z,-1.40
2023-02-27T01:07:00.664Z,-1.40
2023-02-27T01:09:27.786Z,-1.30
2023-02-27T01:11:54.734Z,-1.50
2023-02-27T01:14:21.580Z,-1.60
2023-02-27T01:16:48.393Z,-1.50
2023-02-27T01:19:15.511Z,-1.50
2023-02-27T01:21:42.407Z,-1.40
2023-02-27T01:24:10.239Z,-1.40
2023-02-27T01:26:37.432Z,-1.30
2023-02-27T01:29:06.495Z,-1.30
2023-02-27T01:31:33.909Z,-1.20
2023-02-27T01:34:00.922Z,-1.10
2023-02-27T01:36:27.969Z,-1.10
2023-02-27T01:38:55.210Z,-1.10
2023-02-27T01:41:22.358Z,-1.10
2023-02-27T01:43:56.885Z,-1.10
2023-02-27T01:46:24.921Z,-1.10
2023-02-27T01:48:59.531Z,-1.00
2023-02-27T01:51:31.606Z,-1.10
2023-02-27T01:53:59.037Z,-1.00
2023-02-27T01:56:29.678Z,-1.10
2023-02-27T01:59:00.545Z,-1.20
2023-02-27T02:01:29.345Z,-1.20
2023-02-27T02:04:18.959Z,-1.20
2023-02-27T02:06:50.467Z,-1.20
2023-02-27T02:09:19.982Z,-1.30
2023-02-27T02:11:47.913Z,-1.30
2023-02-27T02:14:14.829Z,-1.40
2023-02-27T02:17:11.289Z,-1.40
2023-02-27T02:20:20.795Z,-1.50
2023-02-27T02:22:59.804Z,-1.40
2023-02-27T02:26:04.308Z,-1.40
2023-02-27T02:28:59.217Z,-1.40
2023-02-27T02:31:51.314Z,-1.40
2023-02-27T02:34:41.873Z,-1.50
2023-02-27T02:37:40.585Z,-1.40
2023-02-27T02:40:16.553Z,-1.60
2023-02-27T02:43:06.401Z,-1.80
2023-02-27T02:45:52.894Z,-1.80
2023-02-27T02:48:33.151Z,-1.90
2023-02-27T02:51:04.561Z,-2.00
2023-02-27T02:53:46.376Z,-2.20
2023-02-27T02:56:41.202Z,-1.90
2023-02-27T02:59:46.214Z,-1.80
2023-02-27T03:02:18.554Z,-1.70
2023-02-27T03:04:57.998Z,-1.70
2023-02-27T03:07:45.442Z,-1.90
2023-02-27T03:10:15.493Z,-2.00
2023-02-27T03:12:46.720Z,-2.20
2023-02-27T03:15:48.210Z,-2.30
2023-02-27T03:18:24.832Z,-2.30
2023-02-27T03:21:16.628Z,-2.40
2023-02-27T03:23:46.274Z,-2.50
2023-02-27T03:26:19.455Z,-2.50
2023-02-27T03:28:59.309Z,-2.50
2023-02-27T03:31:37.373Z,-2.50
2023-02-27T03:34:17.940Z,-2.50
2023-02-27T03:37:13.264Z,-2.60
2023-02-27T03:39:46.308Z,-2.50
2023-02-27T03:42:37.218Z,-2.50
2023-02-27T03:45:11.506Z,-2.50
2023-02-27T03:47:38.327Z,-2.60
2023-02-27T03:50:05.905Z,-2.60
2023-02-27T03:52:33.108Z,-2.60
2023-02-27T03:55:09.022Z,-2.60
2023-02-27T03:57:37.441Z,-2.60
2023-02-27T04:00:09.447Z,-2.50
2023-02-27T04:02:36.917Z,-2.50
2023-02-27T04:05:04.074Z,-2.40
2023-02-27T04:08:00.989Z,-2.30
2023-02-27T04:11:01.675Z,-2.20
2023-02-27T04:13:46.745Z,-2.30
2023-02-27T04:16:31.068Z,-2.50
2023-02-27T04:19:14.959Z,-2.50
2023-02-27T04:22:07.852Z,-2.60
2023-02-27T04:24:46.825Z,-2.60
2023-02-27T04:27:40.854Z,-2.60
2023-02-27T04:30:35.193Z,-2.60
2023-02-27T04:33:36.905Z,-2.50
2023-02-27T04:36:29.159Z,-2.40
2023-02-27T04:39:06.124Z,-2.30
2023-02-27T04:41:47.238Z,-2.10
2023-02-27T04:44:16.098Z,-2.00
2023-02-27T04:46:45.261Z,-1.90
2023-02-27T04:49:20.632Z,-1.80
2023-02-27T04:52:01.267Z,-1.60
2023-02-27T04:54:39.339Z,-1.50
2023-02-27T04:57:13.222Z,-1.50
2023-02-27T04:59:55.075Z,-1.50
2023-02-27T05:02:35.930Z,-1.50
2023-02-27T05:05:09.182Z,-1.50
2023-02-27T05:07:42.860Z,-1.50
2023-02-27T05:10:27.850Z,-1.60
2023-02-27T05:13:04.745Z,-1.60
2023-02-27T05:15:40.752Z,-1.60
2023-02-27T05:18:12.208Z,-1.60
2023-02-27T05:20:54.374Z,-1.60
2023-02-27T05:23:41.077Z,-1.60
2023-02-27T05:26:14.716Z,-1.70
2023-02-27T05:28:59.816Z,-1.80
2023-02-27T05:31:50.234Z,-1.80
2023-02-27T05:34:29.067Z,-1.70
2023-02-27T05:37:46.024Z,-1.70
2023-02-27T05:40:18.165Z,-1.70
2023-02-27T05:42:53.114Z,-1.80
2023-02-27T05:45:27.740Z,-1.90
2023-02-27T05:48:30.573Z,-1.90
2023-02-27T05:50:59.148Z,-1.80
2023-02-27T05:53:32.051Z,-1.80
2023-02-27T05:56:01.498Z,-1.80
2023-02-27T05:58:43.802Z,-1.90
2023-02-27T06:01:12.132Z,-2.00
2023-02-27T06:03:41.074Z,-2.10
2023-02-27T06:06:16.805Z,-2.00
2023-02-27T06:08:45.240Z,-2.10
2023-02-27T06:11:13.307Z,-2.00
2023-02-27T06:13:41.994Z,-2.00
2023-02-27T06:16:12.220Z,-2.00
2023-02-27T06:18:39.317Z,-2.10
2023-02-27T06:21:06.740Z,-2.10
2023-02-27T06:23:33.601Z,-2.00
2023-02-27T06:26:00.542Z,-2.10
2023-02-27T06:28:27.538Z,-2.20
2023-02-27T06:30:57.583Z,-2.20
2023-02-27T06:33:26.019Z,-2.10
2023-02-27T06:35:53.540Z,-2.00
2023-02-27T06:38:20.987Z,-2.10
2023-02-27T06:40:47.777Z,-2.10
2023-02-27T06:43:14.951Z,-2.00
2023-02-27T06:45:41.807Z,-2.00
2023-02-27T06:48:08.815Z,-2.00
2023-02-27T06:50:36.097Z,-1.90
2023-02-27T06:53:03.168Z,-1.90
2023-02-27T06:55:30.016Z,-1.80
2023-02-27T06:57:56.797Z,-1.70
2023-02-27T07:00:24.012Z,-1.70
2023-02-27T07:02:50.822Z,-1.60
2023-02-27T07:05:18.200Z,-1.40
2023-02-27T07:07:45.107Z,-1.30
2023-02-27T07:10:14.146Z,-1.30
2023-02-27T07:12:41.250Z,-1.30
2023-02-27T07:15:09.208Z,-1.10
2023-02-27T07:17:36.153Z,-1.10
2023-02-27T07:20:03.127Z,-1.10
2023-02-27T07:22:30.321Z,-1.20
2023-02-27T07:24:57.158Z,-1.10
2023-02-27T07:27:23.987Z,-1.10
2023-02-27T07:29:50.895Z,-1.10
2023-02-27T07:32:18.068Z,-1.00
2023-02-27T07:34:45.006Z,-0.90
2023-02-27T07:37:11.889Z,-0.80
2023-02-27T07:39:39.184Z,-0.70
2023-02-27T07:42:06.322Z,-0.70
2023-02-27T07:44:33.119Z,-0.80
2023-02-27T07:46:59.941Z,-0.80
2023-02-27T07:49:26.739Z,-0.70
2023-02-27T07:51:53.511Z,-0.70
2023-02-27T07:54:20.457Z,-0.70
2023-02-27T07:56:47.307Z,-0.50
2023-02-27T07:59:14.068Z,-0.60
2023-02-27T08:01:41.061Z,-0.50
2023-02-27T08:04:07.925Z,-0.30
2023-02-27T08:06:34.808Z,-0.40
2023-02-27T08:09:02.328Z,-0.30
2023-02-27T08:11:29.716Z,-0.20
2023-02-27T08:14:01.539Z,-0.10
2023-02-27T08:16:30.765Z,0.00
2023-02-27T08:18:58.199Z,0.20
2023-02-27T08:21:25.344Z,0.30
2023-02-27T08:23:52.362Z,0.40
2023-02-27T08:26:19.724Z,0.40
2023-02-27T08:28:46.952Z,0.50
2023-02-27T08:31:14.373Z,0.50
2023-02-27T08:33:41.395Z,0.50
2023-02-27T08:36:08.566Z,0.50
2023-02-27T08:38:35.869Z,0.50
2023-02-27T08:41:03.648Z,0.60
2023-02-27T08:43:30.820Z,0.70
2023-02-27T08:45:58.217Z,0.70
2023-02-27T08:48:25.366Z,0.70
2023-02-27T08:50:53.405Z,0.80
2023-02-27T08:53:20.640Z,0.80
2023-02-27T08:55:51.486Z,0.90
2023-02-27T08:58:18.994Z,0.80
2023-02-27T09:00:46.856Z,0.90
2023-02-27T09:03:14.793Z,0.90
2023-02-27T09:05:42.689Z,0.90
2023-02-27T09:08:10.190Z,1.00
2023-02-27T09:10:37.642Z,1.20
2023-02-27T09:13:04.813Z,1.10
2023-02-27T09:15:34.589Z,1.10
2023-02-27T09:18:03.495Z,1.10
2023-02-27T09:20:31.950Z,1.30
2023-02-27T09:23:00.307Z,1.40
2023-02-27T09:25:28.106Z,1.70
2023-02-27T09:27:55.773Z,1.70
2023-02-27T09:30:24.389Z,1.60
2023-02-27T09:32:52.334Z,1.70
2023-02-27T09:35:23.262Z,1.80
2023-02-27T09:37:51.165Z,1.70
2023-02-27T09:40:33.041Z,1.80
2023-02-27T09:43:10.203Z,2.00
2023-02-27T09:45:39.665Z,1.90
2023-02-27T09:48:21.430Z,1.90
2023-02-27T09:50:50.763Z,2.00
2023-02-27T09:53:29.247Z,2.00
2023-02-27T09:56:02.146Z,2.10
2023-02-27T09:58:45.537Z,2.30
2023-02-27T10:01:46.063Z,2.40
2023-02-27T10:04:36.828Z,2.30
2023-02-27T10:07:27.248Z,2.30
2023-02-27T10:10:21.543Z,2.40
2023-02-27T10:13:06.385Z,2.40
2023-02-27T10:15:53.051Z,2.50
2023-02-27T10:18:29.059Z,2.60
2023-02-27T10:21:02.186Z,2.50
2023-02-27T10:23:37.690Z,2.60
2023-02-27T10:26:06.488Z,2.60
2023-02-27T10:28:34.175Z,2.60
2023-02-27T10:31:03.762Z,2.70
2023-02-27T10:33:39.360Z,2.80
2023-02-27T10:36:20.744Z,2.80
2023-02-27T10:39:01.760Z,2.70
2023-02-27T10:41:31.108Z,2.90
2023-02-27T10:44:01.647Z,3.10
2023-02-27T10:46:32.215Z,3.20
2023-02-27T10:49:02.043Z,3.20
2023-02-27T10:51:33.615Z,3.10
2023-02-27T10:54:22.121Z,3.00
2023-02-27T10:56:58.979Z,3.10
2023-02-27T10:59:31.867Z,3.30
2023-02-27T11:02:17.844Z,3.40
2023-02-27T11:04:54.233Z,3.40
2023-02-27T11:07:37.093Z,3.30
2023-02-27T11:10:26.044Z,3.40
2023-02-27T11:13:23.828Z,3.50
2023-02-27T11:16:05.500Z,3.60
2023-02-27T11:18:33.964Z,3.70
2023-02-27T11:21:13.128Z,4.00
2023-02-27T11:24:10.007Z,3.80
2023-02-27T11:26:40.585Z,3.80
2023-02-27T11:29:15.185Z,3.80
2023-02-27T11:31:56.072Z,3.70
2023-02-27T11:34:33.041Z,3.60
2023-02-27T11:37:06.804Z,3.80
2023-02-27T11:39:57.636Z,3.70
2023-02-27T11:42:31.688Z,3.80
2023-02-27T11:46:13.870Z,3.90
2023-02-27T11:48:24.140Z,3.80
2023-02-27T11:50:54.022Z,3.60
2023-02-27T11:53:31.074Z,3.70
2023-02-27T11:56:00.167Z,3.70
2023-02-27T11:58:35.416Z,3.80
2023-02-27T12:01:08.144Z,3.70
2023-02-27T12:04:02.264Z,3.70
2023-02-27T12:06:41.350Z,3.80
2023-02-27T12:09:43.618Z,3.90
2023-02-27T12:12:28.448Z,4.10
2023-02-27T12:15:15.422Z,4.10
2023-02-27T12:17:56.980Z,4.10
2023-02-27T12:20:27.708Z,3.80
2023-02-27T12:22:55.550Z,3.80
2023-02-27T12:25:54.481Z,3.80
2023-02-27T12:28:53.508Z,3.90
2023-02-27T12:31:41.257Z,4.00
2023-02-27T12:34:21.432Z,4.10
2023-02-27T12:36:49.383Z,3.80
2023-02-27T12:39:20.331Z,3.80
2023-02-27T12:42:17.816Z,3.80
2023-02-27T12:45:17.495Z,3.70
2023-02-27T12:47:53.670Z,3.70
2023-02-27T12:50:24.514Z,3.70
2023-02-27T12:53:20.852Z,3.70
2023-02-27T12:55:58.474Z,3.80
2023-02-27T12:58:26.666Z,4.00
2023-02-27T13:01:07.073Z,4.20
2023-02-27T13:03:59.015Z,4.30
2023-02-27T13:06:59.518Z,4.60
2023-02-27T13:09:53.894Z,4.30
2023-02-27T13:12:47.946Z,4.40
2023-02-27T13:15:29.894Z,4.60
2023-02-27T13:18:29.268Z,4.60
2023-02-27T13:21:13.964Z,4.50
2023-02-27T13:23:43.521Z,4.40
2023-02-27T13:26:26.377Z,4.50
2023-02-27T13:28:54.487Z,4.80
2023-02-27T13:31:27.651Z,4.80
2023-02-27T13:34:18.039Z,4.80
2023-02-27T13:36:51.386Z,4.80
2023-02-27T13:39:48.058Z,4.60
2023-02-27T13:42:28.464Z,4.60
2023-02-27T13:45:01.480Z,4.60
2023-02-27T13:47:32.173Z,4.80
2023-02-27T13:52:34.533Z,4.80
2023-02-27T13:55:11.840Z,4.70
2023-02-27T13:57:39.536Z,4.50
2023-02-27T14:00:38.461Z,4.40
2023-02-27T14:03:09.743Z,4.40
2023-02-27T14:05:40.240Z,4.30
2023-02-27T14:08:12.462Z,4.40
2023-02-27T14:10:50.521Z,4.60
2023-02-27T14:13:45.506Z,4.70
2023-02-27T14:16:33.708Z,4.60
2023-02-27T14:19:02.325Z,4.70
2023-02-27T14:21:51.273Z,4.70
2023-02-27T14:24:20.858Z,4.80
2023-02-27T14:26:48.108Z,4.80
2023-02-27T14:29:23.649Z,4.80
2023-02-27T14:31:52.713Z,4.70
2023-02-27T14:34:23.021Z,4.70
2023-02-27T14:37:00.021Z,4.80
2023-02-27T14:39:36.465Z,4.80
2023-02-27T14:42:28.274Z,4.80
2023-02-27T14:44:56.319Z,4.90
2023-02-27T14:47:39.283Z,4.80
2023-02-27T14:50:28.951Z,4.80
2023-02-27T14:52:56.103Z,4.90
2023-02-27T14:55:31.127Z,4.90
2023-02-27T14:57:58.023Z,5.00
2023-02-27T15:00:50.858Z,4.80
2023-02-27T15:03:22.230Z,4.80
2023-02-27T15:05:53.425Z,4.70
2023-02-27T15:08:26.610Z,4.60
2023-02-27T15:10:56.175Z,4.60
2023-02-27T15:13:39.157Z,4.40
2023-02-27T15:16:34.614Z,4.40
2023-02-27T15:19:04.937Z,4.40
2023-02-27T15:21:38.200Z,4.50
2023-02-27T15:24:07.000Z,4.60
2023-02-27T15:26:40.072Z,4.60
2023-02-27T15:29:08.739Z,4.70
2023-02-27T15:31:35.916Z,4.70
2023-02-27T15:34:03.886Z,4.60
2023-02-27T15:36:34.336Z,4.50
2023-02-27T15:39:20.682Z,4.50
2023-02-27T15:41:56.636Z,4.40
2023-02-27T15:44:41.930Z,4.20
2023-02-27T15:47:13.742Z,4.20
2023-02-27T15:49:40.901Z,4.20
2023-02-27T15:52:22.243Z,4.30
2023-02-27T15:55:02.180Z,4.30
2023-02-27T15:57:31.075Z,4.30
2023-02-27T16:00:00.498Z,4.20
2023-02-27T16:02:38.285Z,4.30
2023-02-27T16:05:05.996Z,4.30
2023-02-27T16:07:42.963Z,4.30
2023-02-27T16:10:21.856Z,4.30
2023-02-27T16:12:49.136Z,4.30
2023-02-27T16:15:24.990Z,4.20
2023-02-27T16:18:27.368Z,4.20
2023-02-27T16:21:09.086Z,4.20
2023-02-27T16:23:36.139Z,4.10
2023-02-27T16:26:09.702Z,4.10
2023-02-27T16:28:52.423Z,4.10
2023-02-27T16:31:31.729Z,4.00
2023-02-27T16:34:01.671Z,4.00
2023-02-27T16:36:31.094Z,4.00
2023-02-27T16:38:58.199Z,4.00
2023-02-27T16:41:26.171Z,4.00
2023-02-27T16:43:53.877Z,4.00
2023-02-27T16:46:21.504Z,4.00
2023-02-27T16:48:54.530Z,4.00
2023-02-27T16:51:24.242Z,3.90
2023-02-27T16:53:52.594Z,4.00
2023-02-27T16:56:32.207Z,3.90
2023-02-27T16:59:04.386Z,3.80
2023-02-27T17:01:33.860Z,3.80
2023-02-27T17:04:01.095Z,3.80
2023-02-27T17:06:28.781Z,3.70
2023-02-27T17:08:58.038Z,3.70
2023-02-27T17:11:24.876Z,3.80
2023-02-27T17:13:51.934Z,3.80
2023-02-27T17:16:19.419Z,3.80
2023-02-27T17:18:46.700Z,3.70
2023-02-27T17:21:14.881Z,3.70
2023-02-27T17:23:44.841Z,3.70
2023-02-27T17:26:12.860Z,3.70
2023-02-27T17:28:39.997Z,3.70
2023-02-27T17:31:19.732Z,3.60
2023-02-27T17:33:47.675Z,3.60
2023-02-27T17:36:15.548Z,3.60
2023-02-27T17:38:42.946Z,3.60
2023-02-27T17:41:12.407Z,3.50
2023-02-27T17:43:41.674Z,3.50
2023-02-27T17:46:10.442Z,3.50
2023-02-27T17:48:38.614Z,3.40
2023-02-27T17:51:11.776Z,3.40
2023-02-27T17:53:40.226Z,3.30
2023-02-27T17:56:11.207Z,3.30
2023-02-27T17:58:38.446Z,3.30
2023-02-27T18:01:12.199Z,3.30
2023-02-27T18:03:40.339Z,3.20
2023-02-27T18:06:07.966Z,3.20
2023-02-27T18:08:35.344Z,3.10
2023-02-27T18:11:03.844Z,3.10
2023-02-27T18:13:31.619Z,3.10
2023-02-27T18:15:58.596Z,3.00
2023-02-27T18:18:25.636Z,3.00
2023-02-27T18:21:08.137Z,2.80
2023-02-27T18:23:35.749Z,2.80
2023-02-27T18:26:03.535Z,2.70
2023-02-27T18:28:31.004Z,2.70
2023-02-27T18:31:01.298Z,2.70
2023-02-27T18:33:28.609Z,2.70
2023-02-27T18:35:55.675Z,2.60
2023-02-27T18:38:23.229Z,2.60
2023-02-27T18:40:50.275Z,2.50
2023-02-27T18:43:17.511Z,2.60
2023-02-27T18:45:44.650Z,2.50
2023-02-27T18:48:11.983Z,2.60
2023-02-27T18:50:38.944Z,2.50
2023-02-27T18:53:08.820Z,2.50
2023-02-27T18:55:35.731Z,2.60
2023-02-27T18:58:04.118Z,2.60
2023-02-27T19:00:32.931Z,2.60
2023-02-27T19:03:00.036Z,2.60
2023-02-27T19:05:27.247Z,2.60
2023-02-27T19:07:59.868Z,2.60
2023-02-27T19:10:26.912Z,2.60
2023-02-27T19:12:56.878Z,2.50
2023-02-27T19:15:23.872Z,2.50
2023-02-27T19:17:51.016Z,2.40
2023-02-27T19:20:18.695Z,2.30
2023-02-27T19:22:48.809Z,2.30
2023-02-27T19:25:16.476Z,2.20
2023-02-27T19:27:44.994Z,2.20
2023-02-27T19:30:12.825Z,2.20
2023-02-27T19:32:40.487Z,2.30
2023-02-27T19:35:10.529Z,2.30
2023-02-27T19:37:37.453Z,2.30
2023-02-27T19:40:04.720Z,2.30
2023-02-27T19:42:34.395Z,2.30
2023-02-27T19:45:01.528Z,2.20
2023-02-27T19:47:28.510Z,2.20
2023-02-27T19:49:55.661Z,2.10
2023-02-27T19:52:22.572Z,2.10
2023-02-27T19:54:53.300Z,2.10
2023-02-27T19:57:20.634Z,2.20
2023-02-27T19:59:47.851Z,2.20
2023-02-27T20:02:15.654Z,2.20
2023-02-27T20:04:44.723Z,2.20
2023-02-27T20:07:12.518Z,2.20
2023-02-27T20:09:42.087Z,2.30
2023-02-27T20:12:10.318Z,2.30
2023-02-27T20:14:38.105Z,2.30
2023-02-27T20:17:06.722Z,2.30
2023-02-27T20:19:36.701Z,2.30
2023-02-27T20:22:07.565Z,2.20
2023-02-27T20:24:34.813Z,2.30
2023-02-27T20:27:20.671Z,2.20
2023-02-27T20:29:54.968Z,2.20
2023-02-27T20:32:25.517Z,2.20
2023-02-27T20:35:03.579Z,2.10
2023-02-27T20:37:38.382Z,2.10
2023-02-27T20:40:06.100Z,2.70
2023-02-27T20:42:34.092Z,2.00
2023-02-27T20:45:01.204Z,2.00
2023-02-27T20:47:28.465Z,1.90
2023-02-27T20:49:55.780Z,1.80
2023-02-27T20:52:23.368Z,1.80
2023-02-27T20:54:50.988Z,1.70
2023-02-27T20:57:23.354Z,1.50
2023-02-27T20:59:54.068Z,1.50
2023-02-27T21:02:24.619Z,1.50
2023-02-27T21:04:53.463Z,1.30
2023-02-27T21:07:22.062Z,1.30
2023-02-27T21:09:51.508Z,1.30
2023-02-27T21:12:19.396Z,1.40
2023-02-27T21:14:50.215Z,1.40
2023-02-27T21:17:18.426Z,1.40
2023-02-27T21:19:45.527Z,1.30
2023-02-27T21:22:14.460Z,1.30
2023-02-27T21:24:41.474Z,1.10
2023-02-27T21:27:08.953Z,1.00
2023-02-27T21:29:36.790Z,0.90
2023-02-27T21:32:04.655Z,0.90
2023-02-27T21:34:32.531Z,0.90
2023-02-27T21:37:04.204Z,0.70
2023-02-27T21:39:31.209Z,0.50
2023-02-27T21:42:02.452Z,0.50
2023-02-27T21:44:32.119Z,0.40
2023-02-27T21:47:08.595Z,0.40
2023-02-27T21:49:36.520Z,0.60
2023-02-27T21:52:04.674Z,0.50
2023-02-27T21:54:31.678Z,0.50
2023-02-27T21:57:01.873Z,0.70
2023-02-27T21:59:29.793Z,0.70
2023-02-27T22:01:57.747Z,0.70
2023-02-27T22:04:25.180Z,0.50
2023-02-27T22:06:53.456Z,0.30
2023-02-27T22:09:21.223Z,0.30
2023-02-27T22:11:50.138Z,0.20
2023-02-27T22:14:17.296Z,0.00
2023-02-27T22:16:44.426Z,0.00
2023-02-27T22:19:20.243Z,-0.10
2023-02-27T22:21:47.831Z,-0.20
2023-02-27T22:24:15.190Z,-0.20
2023-02-27T22:26:42.673Z,-0.20
2023-02-27T22:29:10.319Z,-0.20
2023-02-27T22:31:38.880Z,-0.20
2023-02-27T22:34:08.354Z,-0.30
2023-02-27T22:36:43.651Z,-0.30
2023-02-27T22:39:11.956Z,-0.30
2023-02-27T22:41:42.809Z,-0.40
2023-02-27T22:44:12.908Z,-0.40
2023-02-27T22:46:43.380Z,-0.50
2023-02-27T22:49:16.766Z,-0.50
2023-02-27T22:51:44.256Z,-0.60
2023-02-27T22:54:13.809Z,-0.60
2023-02-27T22:56:40.754Z,-0.70
2023-02-27T22:59:07.930Z,-0.50
2023-02-27T23:01:37.458Z,-0.50
2023-02-27T23:04:08.883Z,-0.60
2023-02-27T23:06:38.929Z,-0.60
2023-02-27T23:09:08.719Z,-0.60
2023-02-27T23:11:36.087Z,-0.80
2023-02-27T23:14:02.996Z,-0.70
2023-02-27T23:16:30.052Z,-0.50
2023-02-27T23:18:59.132Z,-0.60
2023-02-27T23:21:34.579Z,-0.70
2023-02-27T23:24:06.818Z,-0.90
2023-02-27T23:26:39.600Z,-0.90
2023-02-27T23:29:07.104Z,-0.70
2023-02-27T23:31:35.685Z,-0.60
2023-02-27T23:34:04.925Z,-0.70
2023-02-27T23:36:32.615Z,-0.60
2023-02-27T23:38:59.701Z,-0.60
2023-02-27T23:41:27.915Z,-0.60
2023-02-27T23:43:55.407Z,-0.80
2023-02-27T23:46:22.358Z,-0.70
2023-02-27T23:48:49.232Z,-0.70
2023-02-27T23:51:16.183Z,-0.80
2023-02-27T23:53:43.341Z,-0.80
2023-02-27T23:56:22.266Z,-0.90
2023-02-27T23:59:04.534Z,-1.00
